createdAt,value
2018-05-06T00:00:10.102Z,96254.43
2018-05-06T00:02:38.451Z,96257.80
2018-05-06T00:05:06.797Z,96252.63
2018-05-06T00:07:35.114Z,96255.80
2018-05-06T00:10:03.445Z,96252.19
2018-05-06T00:12:31.753Z,96254.22
2018-05-06T00:15:00.093Z,96262.42
2018-05-06T00:17:28.442Z,96264.67
2018-05-06T00:19:56.787Z,96263.30
2018-05-06T00:22:25.095Z,96267.75
2018-05-06T00:24:53.445Z,96264.92
2018-05-06T00:27:21.860Z,96261.80
2018-05-06T00:29:50.188Z,96256.73
2018-05-06T00:32:18.608Z,96258.53
2018-05-06T00:34:46.990Z,96265.51
2018-05-06T00:37:15.376Z,96260.47
2018-05-06T00:39:43.733Z,96262.46
2018-05-06T00:42:12.062Z,96271.81
2018-05-06T00:44:40.806Z,96262.59
2018-05-06T00:47:09.229Z,96268.97
2018-05-06T00:49:37.569Z,96262.45
2018-05-06T00:52:06.029Z,96269.14
2018-05-06T00:54:44.264Z,96271.90
2018-05-06T00:57:12.603Z,96273.63
2018-05-06T00:59:41.012Z,96272.52
2018-05-06T01:02:09.351Z,96274.59
2018-05-06T01:04:37.766Z,96271.81
2018-05-06T01:07:06.117Z,96278.99
2018-05-06T01:09:34.568Z,96276.25
2018-05-06T01:12:02.906Z,96275.44
2018-05-06T01:14:31.224Z,96269.16
2018-05-06T01:16:59.565Z,96276.36
2018-05-06T01:19:27.889Z,96272.23
2018-05-06T01:21:56.269Z,96274.91
2018-05-06T01:24:24.589Z,96270.84
2018-05-06T01:26:52.920Z,96273.67
2018-05-06T01:29:21.251Z,96269.78
2018-05-06T01:31:49.576Z,96273.08
2018-05-06T01:34:17.916Z,96275.19
2018-05-06T01:36:46.241Z,96271.05
2018-05-06T01:39:14.669Z,96276.11
2018-05-06T01:41:42.993Z,96284.06
2018-05-06T01:44:11.404Z,96273.86
2018-05-06T01:46:39.717Z,96273.95
2018-05-06T01:49:08.057Z,96272.19
2018-05-06T01:51:36.456Z,96266.97
2018-05-06T01:54:04.833Z,96268.18
2018-05-06T01:56:33.243Z,96268.89
2018-05-06T01:59:01.588Z,96263.16
2018-05-06T02:01:29.999Z,96265.48
2018-05-06T02:03:58.319Z,96269.47
2018-05-06T02:06:26.628Z,96263.33
2018-05-06T02:08:54.983Z,96267.43
2018-05-06T02:11:23.384Z,96260.82
2018-05-06T02:13:51.689Z,96261.96
2018-05-06T02:16:20.032Z,96266.50
2018-05-06T02:18:48.408Z,96258.66
2018-05-06T02:21:16.781Z,96258.14
2018-05-06T02:23:45.160Z,96260.19
2018-05-06T02:26:13.625Z,96267.81
2018-05-06T02:28:41.928Z,96265.64
2018-05-06T02:31:10.294Z,96262.30
2018-05-06T02:33:38.636Z,96261.28
2018-05-06T02:36:07.062Z,96265.60
2018-05-06T02:38:35.375Z,96260.34
2018-05-06T02:41:03.737Z,96259.27
2018-05-06T02:43:32.050Z,96261.89
2018-05-06T02:46:00.464Z,96255.70
2018-05-06T02:48:28.806Z,96264.59
2018-05-06T02:50:57.213Z,96264.53
2018-05-06T02:53:25.665Z,96258.28
2018-05-06T02:55:54.083Z,96260.79
2018-05-06T02:58:22.456Z,96253.03
2018-05-06T03:00:50.828Z,96249.38
2018-05-06T03:03:19.214Z,96247.83
2018-05-06T03:05:47.597Z,96247.49
2018-05-06T03:08:15.968Z,96243.83
2018-05-06T03:10:44.350Z,96233.45
2018-05-06T03:13:12.728Z,96237.35
2018-05-06T03:15:41.052Z,96238.04
2018-05-06T03:18:09.400Z,96233.89
2018-05-06T03:20:37.721Z,96235.63
2018-05-06T03:23:06.180Z,96235.34
2018-05-06T03:25:34.522Z,96241.08
2018-05-06T03:28:02.897Z,96237.87
2018-05-06T03:30:31.233Z,96243.16
2018-05-06T03:32:59.561Z,96248.20
2018-05-06T03:35:27.893Z,96248.63
2018-05-06T03:37:56.202Z,96249.11
2018-05-06T03:40:24.576Z,96244.66
2018-05-06T03:42:52.908Z,96248.14
2018-05-06T03:45:21.345Z,96245.20
2018-05-06T03:47:49.727Z,96245.75
2018-05-06T03:50:18.060Z,96249.78
2018-05-06T03:52:46.476Z,96260.14
2018-05-06T03:55:14.828Z,96258.59
2018-05-06T03:57:55.126Z,96266.16
2018-05-06T04:00:46.264Z,96272.73
2018-05-06T04:03:14.608Z,96268.20
2018-05-06T04:05:43.010Z,96264.55
2018-05-06T04:08:11.332Z,96261.89
2018-05-06T04:10:39.740Z,96269.20
2018-05-06T04:13:08.055Z,96276.42
2018-05-06T04:15:36.400Z,96271.17
2018-05-06T04:18:04.733Z,96270.42
2018-05-06T04:20:33.150Z,96274.61
2018-05-06T04:23:01.465Z,96280.69
2018-05-06T04:25:29.805Z,96280.91
2018-05-06T04:27:58.125Z,96279.77
2018-05-06T04:30:26.432Z,96282.45
2018-05-06T04:32:54.773Z,96283.91
2018-05-06T04:35:23.085Z,96291.13
2018-05-06T04:37:51.437Z,96290.84
2018-05-06T04:40:19.804Z,96295.73
2018-05-06T04:42:48.237Z,96303.16
2018-05-06T04:45:16.560Z,96299.88
2018-05-06T04:47:44.905Z,96293.22
2018-05-06T04:50:14.451Z,96301.73
2018-05-06T04:52:42.876Z,96303.66
2018-05-06T04:55:11.190Z,96303.89
2018-05-06T04:57:39.540Z,96306.63
2018-05-06T05:00:07.856Z,96309.47
2018-05-06T05:02:36.202Z,96313.16
2018-05-06T05:05:04.522Z,96313.59
2018-05-06T05:07:32.886Z,96312.52
2018-05-06T05:10:01.194Z,96314.73
2018-05-06T05:12:29.598Z,96312.41
2018-05-06T05:14:57.981Z,96316.33
2018-05-06T05:17:26.366Z,96312.58
2018-05-06T05:19:54.742Z,96317.98
2018-05-06T05:22:23.078Z,96324.98
2018-05-06T05:24:51.447Z,96323.30
2018-05-06T05:27:19.769Z,96331.22
2018-05-06T05:29:48.188Z,96330.25
2018-05-06T05:32:16.501Z,96332.47
2018-05-06T05:34:44.907Z,96332.11
2018-05-06T05:37:13.280Z,96333.15
2018-05-06T05:39:41.616Z,96332.34
2018-05-06T05:42:09.956Z,96331.33
2018-05-06T05:44:38.272Z,96333.55
2018-05-06T05:47:06.592Z,96333.70
2018-05-06T05:49:34.935Z,96330.00
2018-05-06T05:52:03.253Z,96334.32
2018-05-06T05:54:31.742Z,96328.87
2018-05-06T05:57:00.066Z,96332.23
2018-05-06T05:59:28.403Z,96331.53
2018-05-06T06:01:56.717Z,96334.30
2018-05-06T06:04:25.017Z,96339.88
2018-05-06T06:06:53.422Z,96340.45
2018-05-06T06:09:21.753Z,96338.23
2018-05-06T06:11:50.081Z,96329.09
2018-05-06T06:14:18.520Z,96334.94
2018-05-06T06:16:46.863Z,96334.56
2018-05-06T06:19:15.565Z,96333.03
2018-05-06T06:21:43.982Z,96337.83
2018-05-06T06:24:12.307Z,96329.95
2018-05-06T06:26:40.652Z,96336.50
2018-05-06T06:29:08.974Z,96336.67
2018-05-06T06:31:37.399Z,96335.59
2018-05-06T06:34:05.780Z,96330.41
2018-05-06T06:36:34.275Z,96339.05
2018-05-06T06:39:02.654Z,96334.05
2018-05-06T06:41:30.998Z,96338.08
2018-05-06T06:43:59.397Z,96331.02
2018-05-06T06:46:27.765Z,96331.86
2018-05-06T06:48:56.430Z,96329.05
2018-05-06T06:51:24.833Z,96331.64
2018-05-06T06:53:53.228Z,96328.73
2018-05-06T06:56:21.569Z,96329.08
2018-05-06T06:58:49.974Z,96324.72
2018-05-06T07:01:18.306Z,96327.59
2018-05-06T07:03:46.635Z,96324.09
2018-05-06T07:06:15.013Z,96329.31
2018-05-06T07:08:43.332Z,96333.05
2018-05-06T07:11:11.649Z,96333.69
2018-05-06T07:13:40.768Z,96330.12
2018-05-06T07:16:09.162Z,96328.95
2018-05-06T07:18:37.474Z,96321.16
2018-05-06T07:21:05.781Z,96323.79
2018-05-06T07:23:34.163Z,96334.10
2018-05-06T07:26:02.481Z,96328.56
2018-05-06T07:28:30.849Z,96336.20
2018-05-06T07:30:59.169Z,96333.41
2018-05-06T07:33:27.500Z,96339.98
2018-05-06T07:35:55.872Z,96338.02
2018-05-06T07:38:24.274Z,96336.03
2018-05-06T07:40:52.633Z,96328.03
2018-05-06T07:43:20.944Z,96332.89
2018-05-06T07:45:49.386Z,96329.44
2018-05-06T07:48:17.742Z,96325.98
2018-05-06T07:50:46.126Z,96330.95
2018-05-06T07:53:14.441Z,96333.39
2018-05-06T07:55:42.773Z,96334.33
2018-05-06T07:58:11.097Z,96329.16
2018-05-06T08:00:39.430Z,96331.36
2018-05-06T08:03:07.811Z,96324.64
2018-05-06T08:05:36.151Z,96327.39
2018-05-06T08:08:04.540Z,96332.03
2018-05-06T08:10:32.874Z,96325.84
2018-05-06T08:13:01.185Z,96323.53
2018-05-06T08:15:29.522Z,96323.78
2018-05-06T08:17:57.883Z,96320.79
2018-05-06T08:20:26.245Z,96322.38
2018-05-06T08:22:54.625Z,96321.84
2018-05-06T08:25:23.009Z,96321.08
2018-05-06T08:27:51.312Z,96318.36
2018-05-06T08:30:19.652Z,96320.06
2018-05-06T08:32:48.013Z,96309.63
2018-05-06T08:35:16.415Z,96311.35
2018-05-06T08:37:44.806Z,96313.99
2018-05-06T08:40:13.122Z,96315.50
2018-05-06T08:42:41.466Z,96316.52
2018-05-06T08:45:09.842Z,96316.30
2018-05-06T08:47:38.228Z,96313.99
2018-05-06T08:50:06.527Z,96306.02
2018-05-06T08:52:34.953Z,96315.47
2018-05-06T08:55:03.261Z,96302.13
2018-05-06T08:57:31.581Z,96316.91
2018-05-06T08:59:59.914Z,96312.28
2018-05-06T09:02:28.284Z,96305.23
2018-05-06T09:04:56.597Z,96309.80
2018-05-06T09:07:24.926Z,96300.16
2018-05-06T09:09:53.327Z,96306.18
2018-05-06T09:12:21.635Z,96299.55
2018-05-06T09:14:50.065Z,96301.59
2018-05-06T09:17:18.390Z,96297.75
2018-05-06T09:19:46.791Z,96300.16
2018-05-06T09:22:15.066Z,96306.36
2018-05-06T09:24:43.394Z,96300.60
2018-05-06T09:27:11.854Z,96306.84
2018-05-06T09:29:40.184Z,96308.98
2018-05-06T09:32:08.525Z,96309.50
2018-05-06T09:34:36.862Z,96304.98
2018-05-06T09:37:05.173Z,96302.47
2018-05-06T09:39:33.501Z,96295.73
2018-05-06T09:42:01.807Z,96301.03
2018-05-06T09:44:30.137Z,96298.88
2018-05-06T09:46:58.449Z,96292.06
2018-05-06T09:49:26.894Z,96295.52
2018-05-06T09:51:55.192Z,96296.20
2018-05-06T09:54:23.556Z,96297.93
2018-05-06T09:56:51.980Z,96298.80
2018-05-06T09:59:20.345Z,96296.68
2018-05-06T10:01:48.749Z,96295.34
2018-05-06T10:04:17.124Z,96305.06
2018-05-06T10:06:45.467Z,96305.64
2018-05-06T10:09:13.773Z,96297.48
2018-05-06T10:11:42.145Z,96296.97
2018-05-06T10:14:10.472Z,96292.38
2018-05-06T10:16:38.837Z,96286.51
2018-05-06T10:19:07.158Z,96281.08
2018-05-06T10:21:35.495Z,96289.17
2018-05-06T10:24:03.801Z,96278.69
2018-05-06T10:26:32.129Z,96287.86
2018-05-06T10:29:00.492Z,96276.80
2018-05-06T10:31:28.832Z,96275.59
2018-05-06T10:33:57.143Z,96279.22
2018-05-06T10:36:25.518Z,96273.41
2018-05-06T10:38:53.930Z,96273.33
2018-05-06T10:41:22.263Z,96267.44
2018-05-06T10:43:50.581Z,96269.62
2018-05-06T10:46:18.934Z,96261.82
2018-05-06T10:48:47.253Z,96259.66
2018-05-06T10:51:15.591Z,96260.27
2018-05-06T10:53:43.922Z,96256.78
2018-05-06T10:56:12.249Z,96247.80
2018-05-06T10:58:40.567Z,96255.53
2018-05-06T11:01:09.000Z,96249.42
2018-05-06T11:03:37.316Z,96249.25
2018-05-06T11:06:05.616Z,96245.91
2018-05-06T11:08:34.320Z,96242.42
2018-05-06T11:11:02.637Z,96235.02
2018-05-06T11:13:31.045Z,96244.23
2018-05-06T11:15:59.376Z,96237.03
2018-05-06T11:18:27.752Z,96231.41
2018-05-06T11:20:56.068Z,96230.02
2018-05-06T11:23:24.550Z,96220.81
2018-05-06T11:25:52.858Z,96224.59
2018-05-06T11:28:21.273Z,96222.81
2018-05-06T11:30:49.573Z,96222.65
2018-05-06T11:33:18.053Z,96226.09
2018-05-06T11:35:46.398Z,96219.98
2018-05-06T11:38:14.829Z,96218.41
2018-05-06T11:40:43.198Z,96219.59
2018-05-06T11:43:11.574Z,96221.69
2018-05-06T11:45:39.870Z,96219.13
2018-05-06T11:48:08.283Z,96217.92
2018-05-06T11:50:36.539Z,96216.73
2018-05-06T11:53:04.984Z,96217.80
2018-05-06T11:55:33.319Z,96213.73
2018-05-06T11:58:01.626Z,96217.70
2018-05-06T12:00:29.981Z,96218.86
2018-05-06T12:02:58.362Z,96221.72
2018-05-06T12:05:26.698Z,96216.17
2018-05-06T12:07:55.007Z,96209.39
2018-05-06T12:10:23.332Z,96210.09
2018-05-06T12:12:51.673Z,96207.84
2018-05-06T12:15:20.009Z,96203.00
2018-05-06T12:17:48.828Z,96204.86
2018-05-06T12:20:17.157Z,96200.17
2018-05-06T12:22:45.482Z,96200.36
2018-05-06T12:25:13.906Z,96193.31
2018-05-06T12:27:42.196Z,96199.02
2018-05-06T12:30:10.532Z,96197.47
2018-05-06T12:32:38.895Z,96190.77
2018-05-06T12:35:07.266Z,96199.81
2018-05-06T12:37:35.594Z,96191.99
2018-05-06T12:40:03.934Z,96190.52
2018-05-06T12:42:32.241Z,96182.64
2018-05-06T12:45:00.550Z,96188.34
2018-05-06T12:47:28.879Z,96185.91
2018-05-06T12:49:57.229Z,96182.31
2018-05-06T12:52:25.691Z,96183.48
2018-05-06T12:54:53.993Z,96182.87
2018-05-06T12:57:22.416Z,96179.54
2018-05-06T12:59:50.859Z,96175.83
2018-05-06T13:02:19.287Z,96175.41
2018-05-06T13:04:47.590Z,96168.97
2018-05-06T13:07:15.912Z,96174.97
2018-05-06T13:09:44.224Z,96160.33
2018-05-06T13:12:12.584Z,96158.80
2018-05-06T13:14:40.877Z,96154.98
2018-05-06T13:17:09.213Z,96146.63
2018-05-06T13:19:37.522Z,96149.83
2018-05-06T13:22:05.858Z,96152.40
2018-05-06T13:24:34.174Z,96147.75
2018-05-06T13:27:02.511Z,96143.93
2018-05-06T13:29:30.825Z,96140.05
2018-05-06T13:31:59.177Z,96133.50
2018-05-06T13:34:27.488Z,96133.84
2018-05-06T13:36:55.800Z,96132.70
2018-05-06T13:39:24.200Z,96129.65
2018-05-06T13:41:52.511Z,96132.79
2018-05-06T13:44:20.945Z,96125.41
2018-05-06T13:46:49.278Z,96122.72
2018-05-06T13:49:17.733Z,96119.09
2018-05-06T13:51:46.032Z,96129.63
2018-05-06T13:54:14.361Z,96124.48
2018-05-06T13:56:42.748Z,96120.59
2018-05-06T13:59:11.084Z,96118.92
2018-05-06T14:01:39.404Z,96113.14
2018-05-06T14:04:07.733Z,96106.77
2018-05-06T14:06:36.146Z,96109.73
2018-05-06T14:09:04.489Z,96116.05
2018-05-06T14:11:32.811Z,96109.88
2018-05-06T14:14:01.142Z,96115.64
2018-05-06T14:16:29.457Z,96113.64
2018-05-06T14:18:57.797Z,96097.66
2018-05-06T14:21:26.112Z,96103.12
2018-05-06T14:23:54.530Z,96102.22
2018-05-06T14:26:22.856Z,96097.02
2018-05-06T14:28:51.244Z,96096.35
2018-05-06T14:31:19.626Z,96093.89
2018-05-06T14:33:47.944Z,96100.41
2018-05-06T14:36:16.277Z,96099.31
2018-05-06T14:38:44.596Z,96096.43
2018-05-06T14:41:12.930Z,96088.44
2018-05-06T14:43:41.307Z,96089.62
2018-05-06T14:49:04.676Z,96085.72
2018-05-06T14:51:32.985Z,96094.99
2018-05-06T14:54:01.338Z,96092.11
2018-05-06T14:56:29.660Z,96098.58
2018-05-06T14:58:57.969Z,96092.47
2018-05-06T15:01:26.315Z,96091.14
2018-05-06T15:03:54.628Z,96087.50
2018-05-06T15:06:22.976Z,96092.16
2018-05-06T15:08:51.297Z,96092.96
2018-05-06T15:11:19.715Z,96085.34
2018-05-06T15:13:48.022Z,96088.02
2018-05-06T15:16:16.458Z,96082.95
2018-05-06T15:18:44.812Z,96080.61
2018-05-06T15:21:13.184Z,96075.92
2018-05-06T15:23:41.449Z,96071.50
2018-05-06T15:26:09.785Z,96078.41
2018-05-06T15:28:38.101Z,96079.77
2018-05-06T15:31:06.509Z,96065.99
2018-05-06T15:33:34.841Z,96077.45
2018-05-06T15:36:03.178Z,96072.16
2018-05-06T15:38:31.492Z,96071.31
2018-05-06T15:40:59.800Z,96073.09
2018-05-06T15:43:28.152Z,96072.79
2018-05-06T15:45:56.440Z,96068.72
2018-05-06T15:48:24.782Z,96067.23
2018-05-06T15:50:53.100Z,96070.74
2018-05-06T15:53:21.508Z,96070.59
2018-05-06T15:55:49.997Z,96072.70
2018-05-06T15:58:18.348Z,96068.02
2018-05-06T16:00:46.743Z,96069.19
2018-05-06T16:03:26.891Z,96067.34
2018-05-06T16:05:55.317Z,96057.34
2018-05-06T16:08:23.641Z,96057.83
2018-05-06T16:10:51.965Z,96055.73
2018-05-06T16:13:20.295Z,96052.64
2018-05-06T16:15:48.634Z,96054.64
2018-05-06T16:18:17.061Z,96057.59
2018-05-06T16:20:45.376Z,96050.68
2018-05-06T16:23:13.696Z,96052.52
2018-05-06T16:25:42.004Z,96054.94
2018-05-06T16:28:10.369Z,96053.75
2018-05-06T16:30:38.688Z,96048.13
2018-05-06T16:33:07.172Z,96053.50
2018-05-06T16:35:35.477Z,96052.81
2018-05-06T16:38:03.897Z,96050.95
2018-05-06T16:40:32.281Z,96050.73
2018-05-06T16:43:00.593Z,96047.98
2018-05-06T16:45:28.957Z,96048.66
2018-05-06T16:47:57.301Z,96045.92
2018-05-06T16:50:25.808Z,96040.09
2018-05-06T16:52:54.094Z,96047.16
2018-05-06T21:59:57.111Z,96139.36
2018-05-06T22:02:25.445Z,96135.66
2018-05-06T22:04:53.785Z,96132.50
2018-05-06T22:07:22.143Z,96134.45
2018-05-06T22:09:50.577Z,96134.83
2018-05-06T22:12:18.953Z,96131.49
2018-05-06T22:14:47.282Z,96131.23
2018-05-06T22:17:15.608Z,96133.23
2018-05-06T22:19:43.964Z,96130.75
2018-05-06T22:22:12.272Z,96136.76
2018-05-06T22:24:40.618Z,96136.28
2018-05-06T22:27:09.004Z,96135.11
2018-05-06T22:29:37.450Z,96132.66
2018-05-06T22:32:05.789Z,96126.74
2018-05-06T22:34:34.077Z,96127.64
2018-05-06T22:37:02.415Z,96130.75
2018-05-06T22:39:30.729Z,96128.75
2018-05-06T22:41:59.094Z,96120.67
2018-05-06T22:44:27.397Z,96118.92
2018-05-06T22:46:55.814Z,96115.75
2018-05-06T22:49:24.108Z,96116.93
2018-05-06T22:51:52.436Z,96117.52
2018-05-06T22:54:20.852Z,96118.51
2018-05-06T22:56:49.181Z,96117.28
2018-05-06T22:59:17.502Z,96116.09
2018-05-06T23:01:45.821Z,96112.89
2018-05-06T23:04:14.190Z,96110.47
2018-05-06T23:06:42.629Z,96107.16
2018-05-06T23:09:11.109Z,96106.19
2018-05-06T23:11:39.417Z,96103.63
2018-05-06T23:14:07.780Z,96100.83
2018-05-06T23:16:36.091Z,96096.66
2018-05-06T23:19:04.447Z,96099.77
2018-05-06T23:21:32.793Z,96101.79
2018-05-06T23:24:01.133Z,96101.81
2018-05-06T23:26:29.538Z,96098.48
2018-05-06T23:28:57.809Z,96098.47
2018-05-06T23:31:26.134Z,96092.88
2018-05-06T23:33:54.529Z,96085.48
2018-05-06T23:36:22.825Z,96085.60
2018-05-06T23:38:51.160Z,96080.55
2018-05-06T23:41:19.520Z,96076.70
2018-05-06T23:43:47.967Z,96073.08
2018-05-06T23:46:16.224Z,96079.89
2018-05-06T23:48:45.568Z,96072.00
2018-05-06T23:51:13.878Z,96067.13
2018-05-06T23:53:42.193Z,96060.94
2018-05-06T23:56:10.534Z,96068.39
2018-05-06T23:58:38.829Z,96064.28
